sensor_id;sensor_type;location;lat;lon;timestamp;temperature;humidity
25108;DHT22;13090;53.422;7.670;2023-07-20T00:04:13;19.10;74.50
25108;DHT22;13090;53.422;7.670;2023-07-20T00:09:34;19.00;74.50
25108;DHT22;13090;53.422;7.670;2023-07-20T00:14:59;19.10;74.60
25108;DHT22;13090;53.422;7.670;2023-07-20T00:20:23;19.10;75.40
25108;DHT22;13090;53.422;7.670;2023-07-20T00:25:44;19.00;75.10
25108;DHT22;13090;53.422;7.670;2023-07-20T00:31:09;19.00;75.00
25108;DHT22;13090;53.422;7.670;2023-07-20T00:36:30;19.00;75.30
25108;DHT22;13090;53.422;7.670;2023-07-20T00:41:50;19.00;75.30
25108;DHT22;13090;53.422;7.670;2023-07-20T00:47:13;18.90;75.40
25108;DHT22;13090;53.422;7.670;2023-07-20T00:52:34;18.90;75.80
25108;DHT22;13090;53.422;7.670;2023-07-20T00:57:56;18.80;75.50
25108;DHT22;13090;53.422;7.670;2023-07-20T01:03:18;18.80;75.60
25108;DHT22;13090;53.422;7.670;2023-07-20T01:08:43;18.80;76.00
25108;DHT22;13090;53.422;7.670;2023-07-20T01:14:07;18.70;76.30
25108;DHT22;13090;53.422;7.670;2023-07-20T01:19:29;18.80;76.20
25108;DHT22;13090;53.422;7.670;2023-07-20T01:25:26;18.70;76.40
25108;DHT22;13090;53.422;7.670;2023-07-20T01:30:59;18.70;78.50
25108;DHT22;13090;53.422;7.670;2023-07-20T01:36:26;18.60;76.60
25108;DHT22;13090;53.422;7.670;2023-07-20T01:41:48;18.60;76.80
25108;DHT22;13090;53.422;7.670;2023-07-20T01:47:09;18.60;76.70
25108;DHT22;13090;53.422;7.670;2023-07-20T01:52:32;18.50;76.80
25108;DHT22;13090;53.422;7.670;2023-07-20T01:57:54;18.50;77.10
25108;DHT22;13090;53.422;7.670;2023-07-20T02:03:15;18.40;77.00
25108;DHT22;13090;53.422;7.670;2023-07-20T02:08:38;18.40;77.10
25108;DHT22;13090;53.422;7.670;2023-07-20T02:13:59;18.30;77.20
25108;DHT22;13090;53.422;7.670;2023-07-20T02:19:20;18.20;76.90
25108;DHT22;13090;53.422;7.670;2023-07-20T02:24:43;18.10;76.80
25108;DHT22;13090;53.422;7.670;2023-07-20T02:30:05;18.00;77.00
25108;DHT22;13090;53.422;7.670;2023-07-20T02:35:26;17.90;76.90
25108;DHT22;13090;53.422;7.670;2023-07-20T02:40:48;17.80;77.00
25108;DHT22;13090;53.422;7.670;2023-07-20T02:46:08;17.60;77.20
25108;DHT22;13090;53.422;7.670;2023-07-20T02:51:29;17.50;77.20
25108;DHT22;13090;53.422;7.670;2023-07-20T02:56:52;17.40;77.40
25108;DHT22;13090;53.422;7.670;2023-07-20T03:02:13;17.30;77.50
25108;DHT22;13090;53.422;7.670;2023-07-20T03:07:33;17.20;77.50
25108;DHT22;13090;53.422;7.670;2023-07-20T03:12:56;17.10;77.60
25108;DHT22;13090;53.422;7.670;2023-07-20T03:18:17;17.00;78.70
25108;DHT22;13090;53.422;7.670;2023-07-20T03:23:38;16.90;78.00
25108;DHT22;13090;53.422;7.670;2023-07-20T03:29:00;16.70;78.20
25108;DHT22;13090;53.422;7.670;2023-07-20T03:34:21;16.70;78.60
25108;DHT22;13090;53.422;7.670;2023-07-20T03:39:42;16.70;78.50
25108;DHT22;13090;53.422;7.670;2023-07-20T03:45:05;16.70;78.50
25108;DHT22;13090;53.422;7.670;2023-07-20T03:50:27;16.60;78.60
25108;DHT22;13090;53.422;7.670;2023-07-20T03:55:48;16.60;78.40
25108;DHT22;13090;53.422;7.670;2023-07-20T04:01:11;16.60;78.60
25108;DHT22;13090;53.422;7.670;2023-07-20T04:06:32;16.60;78.70
25108;DHT22;13090;53.422;7.670;2023-07-20T04:11:53;16.60;78.60
25108;DHT22;13090;53.422;7.670;2023-07-20T04:17:15;16.60;78.70
25108;DHT22;13090;53.422;7.670;2023-07-20T04:22:36;16.60;78.90
25108;DHT22;13090;53.422;7.670;2023-07-20T04:27:57;16.60;78.80
25108;DHT22;13090;53.422;7.670;2023-07-20T04:33:19;16.60;78.80
25108;DHT22;13090;53.422;7.670;2023-07-20T04:38:40;16.60;79.00
25108;DHT22;13090;53.422;7.670;2023-07-20T04:44:01;16.60;78.90
25108;DHT22;13090;53.422;7.670;2023-07-20T04:49:24;16.60;78.90
25108;DHT22;13090;53.422;7.670;2023-07-20T04:54:45;16.60;79.50
25108;DHT22;13090;53.422;7.670;2023-07-20T05:00:06;16.70;80.10
25108;DHT22;13090;53.422;7.670;2023-07-20T05:05:29;17.00;80.80
25108;DHT22;13090;53.422;7.670;2023-07-20T05:10:49;17.50;81.10
25108;DHT22;13090;53.422;7.670;2023-07-20T05:16:10;17.90;81.20
25108;DHT22;13090;53.422;7.670;2023-07-20T05:21:33;18.60;81.50
25108;DHT22;13090;53.422;7.670;2023-07-20T05:26:53;19.40;81.40
25108;DHT22;13090;53.422;7.670;2023-07-20T05:32:14;20.40;80.80
25108;DHT22;13090;53.422;7.670;2023-07-20T05:37:36;21.40;79.50
25108;DHT22;13090;53.422;7.670;2023-07-20T05:42:57;22.50;77.40
25108;DHT22;13090;53.422;7.670;2023-07-20T05:48:18;23.40;75.80
25108;DHT22;13090;53.422;7.670;2023-07-20T05:53:40;24.20;74.00
25108;DHT22;13090;53.422;7.670;2023-07-20T05:59:02;25.00;72.00
25108;DHT22;13090;53.422;7.670;2023-07-20T06:04:22;25.70;70.80
25108;DHT22;13090;53.422;7.670;2023-07-20T06:09:45;26.40;69.40
25108;DHT22;13090;53.422;7.670;2023-07-20T06:15:12;27.00;67.30
25108;DHT22;13090;53.422;7.670;2023-07-20T06:20:49;27.60;66.10
25108;DHT22;13090;53.422;7.670;2023-07-20T06:26:11;28.20;63.40
25108;DHT22;13090;53.422;7.670;2023-07-20T06:31:32;28.40;61.20
25108;DHT22;13090;53.422;7.670;2023-07-20T06:36:53;28.00;59.10
25108;DHT22;13090;53.422;7.670;2023-07-20T06:42:16;27.40;59.50
25108;DHT22;13090;53.422;7.670;2023-07-20T06:47:38;27.20;60.90
25108;DHT22;13090;53.422;7.670;2023-07-20T06:52:59;27.50;62.40
25108;DHT22;13090;53.422;7.670;2023-07-20T06:58:21;28.10;61.90
25108;DHT22;13090;53.422;7.670;2023-07-20T07:03:42;28.80;59.70
25108;DHT22;13090;53.422;7.670;2023-07-20T07:09:03;29.20;58.60
25108;DHT22;13090;53.422;7.670;2023-07-20T07:14:26;29.40;58.00
25108;DHT22;13090;53.422;7.670;2023-07-20T07:19:48;29.90;56.80
25108;DHT22;13090;53.422;7.670;2023-07-20T07:25:10;30.30;56.40
25108;DHT22;13090;53.422;7.670;2023-07-20T07:30:34;30.50;53.80
25108;DHT22;13090;53.422;7.670;2023-07-20T07:35:55;30.40;52.90
25108;DHT22;13090;53.422;7.670;2023-07-20T07:41:16;29.90;50.70
25108;DHT22;13090;53.422;7.670;2023-07-20T07:46:38;28.90;50.30
25108;DHT22;13090;53.422;7.670;2023-07-20T07:52:00;28.20;52.70
25108;DHT22;13090;53.422;7.670;2023-07-20T07:57:20;28.30;54.20
25108;DHT22;13090;53.422;7.670;2023-07-20T08:02:43;28.70;53.30
25108;DHT22;13090;53.422;7.670;2023-07-20T08:08:04;29.20;52.00
25108;DHT22;13090;53.422;7.670;2023-07-20T08:13:25;29.60;52.60
25108;DHT22;13090;53.422;7.670;2023-07-20T08:18:47;30.40;52.10
25108;DHT22;13090;53.422;7.670;2023-07-20T08:24:08;31.20;51.10
25108;DHT22;13090;53.422;7.670;2023-07-20T08:29:29;31.70;48.70
25108;DHT22;13090;53.422;7.670;2023-07-20T08:34:51;31.50;47.50
25108;DHT22;13090;53.422;7.670;2023-07-20T08:40:14;31.00;46.70
25108;DHT22;13090;53.422;7.670;2023-07-20T08:45:36;31.10;47.20
25108;DHT22;13090;53.422;7.670;2023-07-20T08:51:01;31.30;46.40
25108;DHT22;13090;53.422;7.670;2023-07-20T08:56:26;31.60;46.70
25108;DHT22;13090;53.422;7.670;2023-07-20T09:01:47;32.20;47.30
25108;DHT22;13090;53.422;7.670;2023-07-20T09:07:14;32.40;45.30
25108;DHT22;13090;53.422;7.670;2023-07-20T09:12:36;32.30;44.30
25108;DHT22;13090;53.422;7.670;2023-07-20T09:18:01;32.60;45.20
25108;DHT22;13090;53.422;7.670;2023-07-20T09:23:32;32.80;43.10
25108;DHT22;13090;53.422;7.670;2023-07-20T09:28:53;33.00;42.80
25108;DHT22;13090;53.422;7.670;2023-07-20T09:34:14;32.90;42.50
25108;DHT22;13090;53.422;7.670;2023-07-20T09:39:56;32.60;43.00
25108;DHT22;13090;53.422;7.670;2023-07-20T09:45:20;32.50;42.70
25108;DHT22;13090;53.422;7.670;2023-07-20T09:51:04;32.50;43.00
25108;DHT22;13090;53.422;7.670;2023-07-20T09:56:30;32.40;43.00
25108;DHT22;13090;53.422;7.670;2023-07-20T10:01:54;31.70;42.80
25108;DHT22;13090;53.422;7.670;2023-07-20T10:07:19;30.80;43.50
25108;DHT22;13090;53.422;7.670;2023-07-20T10:12:46;30.20;45.40
25108;DHT22;13090;53.422;7.670;2023-07-20T10:18:12;30.30;46.50
25108;DHT22;13090;53.422;7.670;2023-07-20T10:23:36;31.00;46.60
25108;DHT22;13090;53.422;7.670;2023-07-20T10:28:59;31.40;45.20
25108;DHT22;13090;53.422;7.670;2023-07-20T10:34:20;31.10;42.30
25108;DHT22;13090;53.422;7.670;2023-07-20T10:39:41;30.20;42.10
25108;DHT22;13090;53.422;7.670;2023-07-20T10:45:05;29.50;44.40
25108;DHT22;13090;53.422;7.670;2023-07-20T10:50:27;29.50;46.20
25108;DHT22;13090;53.422;7.670;2023-07-20T10:56:06;30.00;46.00
25108;DHT22;13090;53.422;7.670;2023-07-20T11:01:36;30.20;43.70
25108;DHT22;13090;53.422;7.670;2023-07-20T11:06:57;30.20;44.10
25108;DHT22;13090;53.422;7.670;2023-07-20T11:12:18;30.40;43.70
25108;DHT22;13090;53.422;7.670;2023-07-20T11:17:40;30.40;42.10
25108;DHT22;13090;53.422;7.670;2023-07-20T11:23:01;30.10;42.00
25108;DHT22;13090;53.422;7.670;2023-07-20T11:28:23;30.00;43.50
25108;DHT22;13090;53.422;7.670;2023-07-20T11:33:45;30.40;44.10
25108;DHT22;13090;53.422;7.670;2023-07-20T11:39:07;30.90;42.80
25108;DHT22;13090;53.422;7.670;2023-07-20T11:44:29;31.10;42.30
25108;DHT22;13090;53.422;7.670;2023-07-20T11:49:52;31.30;42.20
25108;DHT22;13090;53.422;7.670;2023-07-20T11:55:13;31.40;42.00
25108;DHT22;13090;53.422;7.670;2023-07-20T12:00:36;31.50;41.70
25108;DHT22;13090;53.422;7.670;2023-07-20T12:06:06;31.40;41.60
25108;DHT22;13090;53.422;7.670;2023-07-20T12:11:31;30.90;40.40
25108;DHT22;13090;53.422;7.670;2023-07-20T12:16:53;30.20;41.40
25108;DHT22;13090;53.422;7.670;2023-07-20T12:22:16;29.50;42.50
25108;DHT22;13090;53.422;7.670;2023-07-20T12:27:37;29.20;43.40
25108;DHT22;13090;53.422;7.670;2023-07-20T12:32:58;29.00;43.40
25108;DHT22;13090;53.422;7.670;2023-07-20T12:38:20;29.00;43.60
25108;DHT22;13090;53.422;7.670;2023-07-20T12:43:41;29.00;43.20
25108;DHT22;13090;53.422;7.670;2023-07-20T12:49:03;29.00;42.80
25108;DHT22;13090;53.422;7.670;2023-07-20T12:54:25;28.90;43.10
25108;DHT22;13090;53.422;7.670;2023-07-20T12:59:49;29.00;43.00
25108;DHT22;13090;53.422;7.670;2023-07-20T13:05:10;29.00;43.10
25108;DHT22;13090;53.422;7.670;2023-07-20T13:10:32;29.00;43.40
25108;DHT22;13090;53.422;7.670;2023-07-20T13:15:53;29.00;43.30
25108;DHT22;13090;53.422;7.670;2023-07-20T13:21:14;29.10;43.60
25108;DHT22;13090;53.422;7.670;2023-07-20T13:26:36;29.30;42.90
25108;DHT22;13090;53.422;7.670;2023-07-20T13:31:57;29.20;42.20
25108;DHT22;13090;53.422;7.670;2023-07-20T13:37:18;29.10;42.40
25108;DHT22;13090;53.422;7.670;2023-07-20T13:42:41;29.00;42.20
25108;DHT22;13090;53.422;7.670;2023-07-20T13:48:02;28.90;42.70
25108;DHT22;13090;53.422;7.670;2023-07-20T13:53:26;29.00;42.80
25108;DHT22;13090;53.422;7.670;2023-07-20T13:58:51;29.10;42.40
25108;DHT22;13090;53.422;7.670;2023-07-20T14:04:12;29.10;42.70
25108;DHT22;13090;53.422;7.670;2023-07-20T14:09:33;29.20;42.50
25108;DHT22;13090;53.422;7.670;2023-07-20T14:14:55;29.30;42.00
25108;DHT22;13090;53.422;7.670;2023-07-20T14:20:16;29.20;41.70
25108;DHT22;13090;53.422;7.670;2023-07-20T14:25:39;29.00;41.80
25108;DHT22;13090;53.422;7.670;2023-07-20T14:31:02;29.00;42.20
25108;DHT22;13090;53.422;7.670;2023-07-20T14:36:23;29.00;41.60
25108;DHT22;13090;53.422;7.670;2023-07-20T14:41:46;28.90;41.30
25108;DHT22;13090;53.422;7.670;2023-07-20T14:47:08;28.60;41.40
25108;DHT22;13090;53.422;7.670;2023-07-20T14:52:35;28.60;42.00
25108;DHT22;13090;53.422;7.670;2023-07-20T14:57:55;28.70;42.30
25108;DHT22;13090;53.422;7.670;2023-07-20T15:03:18;28.80;41.60
25108;DHT22;13090;53.422;7.670;2023-07-20T15:08:39;28.70;41.30
25108;DHT22;13090;53.422;7.670;2023-07-20T15:14:00;28.60;41.40
25108;DHT22;13090;53.422;7.670;2023-07-20T15:19:22;28.40;41.70
25108;DHT22;13090;53.422;7.670;2023-07-20T15:24:43;28.50;41.70
25108;DHT22;13090;53.422;7.670;2023-07-20T15:30:05;28.50;41.60
25108;DHT22;13090;53.422;7.670;2023-07-20T15:35:27;28.40;41.20
25108;DHT22;13090;53.422;7.670;2023-07-20T15:40:48;28.30;41.10
25108;DHT22;13090;53.422;7.670;2023-07-20T15:46:44;28.10;41.10
25108;DHT22;13090;53.422;7.670;2023-07-20T15:52:07;27.80;41.20
25108;DHT22;13090;53.422;7.670;2023-07-20T15:57:28;27.50;41.90
25108;DHT22;13090;53.422;7.670;2023-07-20T16:02:49;27.40;42.20
25108;DHT22;13090;53.422;7.670;2023-07-20T16:08:11;27.40;42.80
25108;DHT22;13090;53.422;7.670;2023-07-20T16:13:32;27.50;42.40
25108;DHT22;13090;53.422;7.670;2023-07-20T16:18:53;27.50;42.40
25108;DHT22;13090;53.422;7.670;2023-07-20T16:24:15;27.50;42.30
25108;DHT22;13090;53.422;7.670;2023-07-20T16:29:37;27.40;42.40
25108;DHT22;13090;53.422;7.670;2023-07-20T16:35:03;27.30;42.30
25108;DHT22;13090;53.422;7.670;2023-07-20T16:40:28;27.20;42.40
25108;DHT22;13090;53.422;7.670;2023-07-20T16:46:09;27.00;42.40
25108;DHT22;13090;53.422;7.670;2023-07-20T16:51:34;26.70;42.70
25108;DHT22;13090;53.422;7.670;2023-07-20T16:56:56;26.60;43.30
25108;DHT22;13090;53.422;7.670;2023-07-20T17:02:17;26.40;43.30
25108;DHT22;13090;53.422;7.670;2023-07-20T17:07:38;26.30;43.50
25108;DHT22;13090;53.422;7.670;2023-07-20T17:13:00;26.20;43.60
25108;DHT22;13090;53.422;7.670;2023-07-20T17:18:21;26.00;43.60
25108;DHT22;13090;53.422;7.670;2023-07-20T17:23:42;25.80;44.00
25108;DHT22;13090;53.422;7.670;2023-07-20T17:29:07;25.60;44.00
25108;DHT22;13090;53.422;7.670;2023-07-20T17:34:28;25.60;44.50
25108;DHT22;13090;53.422;7.670;2023-07-20T17:39:50;25.50;44.70
25108;DHT22;13090;53.422;7.670;2023-07-20T17:45:32;25.60;45.00
25108;DHT22;13090;53.422;7.670;2023-07-20T17:50:54;25.60;44.90
25108;DHT22;13090;53.422;7.670;2023-07-20T17:56:15;25.60;45.00
25108;DHT22;13090;53.422;7.670;2023-07-20T18:01:37;25.60;45.10
25108;DHT22;13090;53.422;7.670;2023-07-20T18:06:58;25.50;45.20
25108;DHT22;13090;53.422;7.670;2023-07-20T18:12:19;25.40;45.30
25108;DHT22;13090;53.422;7.670;2023-07-20T18:17:41;25.30;45.30
25108;DHT22;13090;53.422;7.670;2023-07-20T18:23:02;25.20;45.50
25108;DHT22;13090;53.422;7.670;2023-07-20T18:28:23;25.00;45.90
25108;DHT22;13090;53.422;7.670;2023-07-20T18:33:45;24.90;46.10
25108;DHT22;13090;53.422;7.670;2023-07-20T18:39:06;24.70;46.60
25108;DHT22;13090;53.422;7.670;2023-07-20T18:44:27;24.60;46.90
25108;DHT22;13090;53.422;7.670;2023-07-20T18:49:49;24.50;47.20
25108;DHT22;13090;53.422;7.670;2023-07-20T18:55:10;24.40;47.50
25108;DHT22;13090;53.422;7.670;2023-07-20T19:00:31;24.20;47.50
25108;DHT22;13090;53.422;7.670;2023-07-20T19:05:56;24.10;47.70
25108;DHT22;13090;53.422;7.670;2023-07-20T19:11:17;23.90;48.10
25108;DHT22;13090;53.422;7.670;2023-07-20T19:16:41;23.80;48.10
25108;DHT22;13090;53.422;7.670;2023-07-20T19:22:04;23.70;48.30
25108;DHT22;13090;53.422;7.670;2023-07-20T19:27:24;23.60;48.80
25108;DHT22;13090;53.422;7.670;2023-07-20T19:32:49;23.60;48.90
25108;DHT22;13090;53.422;7.670;2023-07-20T19:38:11;23.50;49.00
25108;DHT22;13090;53.422;7.670;2023-07-20T19:43:32;23.30;49.30
25108;DHT22;13090;53.422;7.670;2023-07-20T19:48:53;23.20;49.60
25108;DHT22;13090;53.422;7.670;2023-07-20T19:54:16;23.00;50.00
25108;DHT22;13090;53.422;7.670;2023-07-20T19:59:40;22.80;50.60
25108;DHT22;13090;53.422;7.670;2023-07-20T20:05:01;22.60;50.60
25108;DHT22;13090;53.422;7.670;2023-07-20T20:10:23;22.40;51.20
25108;DHT22;13090;53.422;7.670;2023-07-20T20:15:44;22.20;51.70
25108;DHT22;13090;53.422;7.670;2023-07-20T20:21:05;22.00;51.90
25108;DHT22;13090;53.422;7.670;2023-07-20T20:26:28;21.80;52.10
25108;DHT22;13090;53.422;7.670;2023-07-20T20:31:48;21.60;52.40
25108;DHT22;13090;53.422;7.670;2023-07-20T20:37:09;21.40;52.50
25108;DHT22;13090;53.422;7.670;2023-07-20T20:42:31;21.20;52.90
25108;DHT22;13090;53.422;7.670;2023-07-20T20:47:52;21.00;53.40
25108;DHT22;13090;53.422;7.670;2023-07-20T20:53:14;20.90;53.50
25108;DHT22;13090;53.422;7.670;2023-07-20T20:58:36;20.70;53.80
25108;DHT22;13090;53.422;7.670;2023-07-20T21:03:57;20.50;54.20
25108;DHT22;13090;53.422;7.670;2023-07-20T21:09:18;20.30;54.40
25108;DHT22;13090;53.422;7.670;2023-07-20T21:14:41;20.10;54.70
25108;DHT22;13090;53.422;7.670;2023-07-20T21:20:02;19.90;55.20
25108;DHT22;13090;53.422;7.670;2023-07-20T21:25:23;19.70;55.40
25108;DHT22;13090;53.422;7.670;2023-07-20T21:30:46;19.50;55.80
25108;DHT22;13090;53.422;7.670;2023-07-20T21:36:07;19.30;56.50
25108;DHT22;13090;53.422;7.670;2023-07-20T21:41:28;19.20;57.00
25108;DHT22;13090;53.422;7.670;2023-07-20T21:46:51;18.90;57.20
25108;DHT22;13090;53.422;7.670;2023-07-20T21:52:12;18.70;57.70
25108;DHT22;13090;53.422;7.670;2023-07-20T21:57:34;18.70;57.80
25108;DHT22;13090;53.422;7.670;2023-07-20T22:02:56;18.60;58.30
25108;DHT22;13090;53.422;7.670;2023-07-20T22:08:18;18.40;58.90
25108;DHT22;13090;53.422;7.670;2023-07-20T22:13:38;18.20;59.60
25108;DHT22;13090;53.422;7.670;2023-07-20T22:19:01;18.00;59.80
25108;DHT22;13090;53.422;7.670;2023-07-20T22:24:22;17.90;60.50
25108;DHT22;13090;53.422;7.670;2023-07-20T22:29:42;17.80;60.60
25108;DHT22;13090;53.422;7.670;2023-07-20T22:35:05;17.80;60.90
25108;DHT22;13090;53.422;7.670;2023-07-20T22:40:26;17.70;61.50
25108;DHT22;13090;53.422;7.670;2023-07-20T22:45:47;17.80;61.40
25108;DHT22;13090;53.422;7.670;2023-07-20T22:51:09;17.80;61.70
25108;DHT22;13090;53.422;7.670;2023-07-20T22:56:30;17.70;62.40
25108;DHT22;13090;53.422;7.670;2023-07-20T23:01:51;17.50;62.70
25108;DHT22;13090;53.422;7.670;2023-07-20T23:07:13;17.40;63.30
25108;DHT22;13090;53.422;7.670;2023-07-20T23:12:34;17.40;64.20
25108;DHT22;13090;53.422;7.670;2023-07-20T23:17:55;17.30;64.20
25108;DHT22;13090;53.422;7.670;2023-07-20T23:23:17;17.30;64.30
25108;DHT22;13090;53.422;7.670;2023-07-20T23:28:38;17.30;65.10
25108;DHT22;13090;53.422;7.670;2023-07-20T23:33:59;17.30;65.10
25108;DHT22;13090;53.422;7.670;2023-07-20T23:39:21;17.20;65.50
25108;DHT22;13090;53.422;7.670;2023-07-20T23:44:42;17.20;66.00
25108;DHT22;13090;53.422;7.670;2023-07-20T23:50:03;17.10;65.80
25108;DHT22;13090;53.422;7.670;2023-07-20T23:55:26;17.10;66.20
